createdAt,value
2023-01-11T00:02:01.447Z,100280.56
2023-01-11T00:07:03.220Z,100280.50
2023-01-11T00:12:04.725Z,100279.63
2023-01-11T00:17:06.157Z,100263.16
2023-01-11T00:22:07.787Z,100277.78
2023-01-11T00:27:09.243Z,100270.81
2023-01-11T00:32:10.798Z,100225.13
2023-01-11T00:37:12.216Z,100229.28
2023-01-11T00:42:32.314Z,100218.88
2023-01-11T00:47:52.511Z,100216.25
2023-01-11T00:52:54.061Z,100194.63
2023-01-11T00:57:55.480Z,100185.91
2023-01-11T01:02:57.299Z,100180.66
2023-01-11T01:07:58.729Z,100194.41
2023-01-11T01:13:18.810Z,100165.97
2023-01-11T01:18:20.543Z,100158.16
2023-01-11T01:23:22.005Z,100169.19
2023-01-11T01:28:25.064Z,100161.38
2023-01-11T01:33:26.494Z,100165.44
2023-01-11T01:38:27.968Z,100147.19
2023-01-11T01:43:53.441Z,100142.81
2023-01-11T01:49:15.642Z,100138.28
2023-01-11T01:54:25.407Z,100129.63
2023-01-11T01:59:29.597Z,100130.31
2023-01-11T02:04:33.614Z,100114.72
2023-01-11T02:09:47.064Z,100118.88
2023-01-11T02:14:49.400Z,100111.06
2023-01-11T02:20:13.091Z,100103.97
2023-01-11T02:25:35.571Z,100086.56
2023-01-11T02:31:09.825Z,100082.88
2023-01-11T02:36:14.046Z,100077.47
2023-01-11T02:41:26.265Z,100077.38
2023-01-11T02:46:34.178Z,100067.84
2023-01-11T02:51:43.020Z,100060.91
2023-01-11T02:56:47.298Z,100076.47
2023-01-11T03:01:51.630Z,100066.00
2023-01-11T03:07:07.382Z,100069.34
2023-01-11T03:12:51.758Z,100036.28
2023-01-11T03:18:14.661Z,100032.56
2023-01-11T03:23:29.285Z,100006.56
2023-01-11T03:28:30.644Z,100029.00
2023-01-11T03:33:56.940Z,100011.47
2023-01-11T03:39:20.605Z,100008.84
2023-01-11T03:44:24.118Z,100013.91
2023-01-11T03:49:36.909Z,100012.19
2023-01-11T03:54:40.108Z,100009.41
2023-01-11T03:59:41.827Z,100023.13
2023-01-11T04:04:43.388Z,100014.47
2023-01-11T04:09:45.804Z,100014.28
2023-01-11T04:14:47.230Z,100013.47
2023-01-11T04:19:48.653Z,100006.38
2023-01-11T04:24:50.076Z,100023.63
2023-01-11T04:29:51.507Z,100023.44
2023-01-11T04:34:52.943Z,100038.94
2023-01-11T04:39:54.379Z,100029.28
2023-01-11T04:44:55.902Z,100039.69
2023-01-11T04:49:57.419Z,100036.88
2023-01-11T04:54:58.824Z,100027.31
2023-01-11T05:00:00.277Z,100035.81
2023-01-11T05:05:01.913Z,100027.31
2023-01-11T05:10:04.162Z,100029.81
2023-01-11T05:15:06.353Z,100030.25
2023-01-11T05:20:08.598Z,100043.03
2023-01-11T05:25:10.025Z,100035.09
2023-01-11T05:30:12.019Z,100062.09
2023-01-11T05:35:13.517Z,100052.31
2023-01-11T05:40:15.118Z,100063.50
2023-01-11T05:45:28.970Z,100085.91
2023-01-11T05:50:30.592Z,100075.53
2023-01-11T05:55:32.058Z,100076.91
2023-01-11T06:00:33.552Z,100076.28
2023-01-11T06:05:35.052Z,100090.81
2023-01-11T06:10:36.562Z,100086.44
2023-01-11T06:15:38.149Z,100084.41
2023-01-11T06:20:39.720Z,100090.38
2023-01-11T06:25:41.183Z,100096.44
2023-01-11T06:30:42.952Z,100101.63
2023-01-11T06:35:44.572Z,100098.53
2023-01-11T06:41:00.328Z,100090.88
2023-01-11T06:46:01.870Z,100116.31
2023-01-11T06:51:03.574Z,100128.16
2023-01-11T06:56:05.378Z,100128.78
2023-01-11T07:01:07.578Z,100139.88
2023-01-11T07:06:09.183Z,100137.88
2023-01-11T07:11:10.805Z,100145.22
2023-01-11T07:16:12.333Z,100157.19
2023-01-11T07:21:13.867Z,100158.09
2023-01-11T07:26:17.232Z,100158.97
2023-01-11T07:31:19.161Z,100143.53
2023-01-11T07:36:20.698Z,100173.19
2023-01-11T07:41:40.487Z,100175.91
2023-01-11T07:46:42.149Z,100186.53
2023-01-11T07:51:43.673Z,100187.13
2023-01-11T07:56:45.103Z,100199.63
2023-01-11T08:01:46.710Z,100204.50
2023-01-11T08:06:48.162Z,100210.06
2023-01-11T08:12:08.072Z,100215.25
2023-01-11T08:17:14.868Z,100220.59
2023-01-11T08:22:18.034Z,100214.25
2023-01-11T08:27:19.498Z,100217.84
2023-01-11T08:32:20.954Z,100230.19
2023-01-11T08:37:22.449Z,100227.53
2023-01-11T08:42:24.347Z,100231.56
2023-01-11T08:47:25.902Z,100251.72
2023-01-11T08:52:27.396Z,100264.81
2023-01-11T08:57:28.870Z,100265.13
2023-01-11T09:02:30.410Z,100269.41
2023-01-11T09:07:32.035Z,100268.69
2023-01-11T09:12:33.550Z,100272.22
2023-01-11T09:17:34.955Z,100282.47
2023-01-11T09:22:36.461Z,100289.28
2023-01-11T09:27:37.967Z,100294.44
2023-01-11T09:32:39.467Z,100293.34
2023-01-11T09:37:44.465Z,100302.19
2023-01-11T09:42:50.873Z,100298.78
2023-01-11T09:48:11.569Z,100297.81
2023-01-11T09:53:30.956Z,100298.41
2023-01-11T09:59:07.663Z,100299.06
2023-01-11T10:04:20.460Z,100306.59
2023-01-11T10:18:29.207Z,100313.75
2023-01-11T10:21:05.677Z,100331.00
2023-01-11T10:26:23.226Z,100321.50
2023-01-11T10:31:47.228Z,100334.91
2023-01-11T10:37:17.462Z,100348.19
2023-01-11T10:42:25.175Z,100352.53
2023-01-11T10:47:43.004Z,100340.31
2023-01-11T10:53:07.666Z,100327.03
2023-01-11T10:58:38.826Z,100330.97
2023-01-11T11:03:48.765Z,100334.22
2023-01-11T11:09:01.220Z,100326.47
2023-01-11T11:14:13.194Z,100333.78
2023-01-11T11:19:19.807Z,100337.09
2023-01-11T11:24:27.737Z,100341.38
2023-01-11T11:29:30.715Z,100338.09
2023-01-11T11:34:32.287Z,100338.94
2023-01-11T11:39:33.924Z,100325.91
2023-01-11T11:44:35.525Z,100350.03
2023-01-11T11:49:38.350Z,100346.47
2023-01-11T11:54:43.314Z,100346.28
2023-01-11T11:59:48.442Z,100344.38
2023-01-11T12:04:51.399Z,100350.59
2023-01-11T12:09:58.673Z,100363.78
2023-01-11T12:15:19.746Z,100355.72
2023-01-11T12:20:21.115Z,100355.13
2023-01-11T12:25:25.226Z,100365.53
2023-01-11T12:30:40.963Z,100375.22
2023-01-11T12:36:05.135Z,100377.19
2023-01-11T12:41:20.846Z,100378.16
2023-01-11T12:46:44.190Z,100373.97
2023-01-11T12:51:58.878Z,100358.97
2023-01-11T12:57:07.409Z,100357.34
2023-01-11T13:02:55.753Z,100376.97
2023-01-11T13:08:24.660Z,100393.19
2023-01-11T13:13:38.322Z,100400.72
2023-01-11T13:18:58.969Z,100392.84
2023-01-11T13:24:13.405Z,100385.59
2023-01-11T13:29:31.387Z,100400.91
2023-01-11T13:34:40.231Z,100392.56
2023-01-11T13:39:59.128Z,100399.94
2023-01-11T13:45:10.115Z,100392.66
2023-01-11T13:50:24.874Z,100405.97
2023-01-11T13:55:43.388Z,100415.25
2023-01-11T14:00:55.063Z,100417.81
2023-01-11T14:06:19.343Z,100427.09
2023-01-11T14:11:44.842Z,100430.31
2023-01-11T14:17:31.492Z,100441.00
2023-01-11T14:22:51.323Z,100445.38
2023-01-11T14:27:52.754Z,100443.56
2023-01-11T14:33:21.850Z,100464.06
2023-01-11T14:38:33.955Z,100471.88
2023-01-11T14:44:05.908Z,100479.03
2023-01-11T14:49:41.325Z,100470.94
2023-01-11T14:54:47.181Z,100468.19
2023-01-11T14:59:48.694Z,100477.78
2023-01-11T15:04:55.914Z,100467.75
2023-01-11T15:10:00.066Z,100468.78
2023-01-11T15:15:12.950Z,100460.28
2023-01-11T15:20:18.985Z,100465.44
2023-01-11T15:25:29.551Z,100460.97
2023-01-11T15:30:30.992Z,100468.50
2023-01-11T15:35:33.936Z,100467.66
2023-01-11T15:40:46.380Z,100477.34
2023-01-11T15:46:31.404Z,100472.78
2023-01-11T15:52:01.221Z,100471.44
2023-01-11T15:57:41.722Z,100466.22
2023-01-11T16:03:04.791Z,100468.03
2023-01-11T16:08:37.540Z,100474.06
2023-01-11T16:14:21.079Z,100483.88
2023-01-11T16:19:27.519Z,100477.06
2023-01-11T16:24:34.524Z,100471.97
2023-01-11T16:29:37.484Z,100471.78
2023-01-11T16:34:46.075Z,100465.81
2023-01-11T16:39:51.859Z,100473.47
2023-01-11T16:45:00.098Z,100464.59
2023-01-11T16:50:21.865Z,100468.25
2023-01-11T16:55:40.828Z,100468.25
2023-01-11T17:00:42.382Z,100475.28
2023-01-11T17:05:54.545Z,100484.91
2023-01-11T17:11:01.362Z,100485.84
2023-01-11T17:16:09.888Z,100482.47
2023-01-11T17:21:24.527Z,100481.72
2023-01-11T17:26:30.587Z,100479.13
2023-01-11T17:31:36.819Z,100479.94
2023-01-11T17:36:38.695Z,100478.25
2023-01-11T17:41:59.230Z,100474.78
2023-01-11T17:47:02.221Z,100470.81
2023-01-11T17:52:25.018Z,100475.38
2023-01-11T17:57:26.459Z,100481.28
2023-01-11T18:02:27.935Z,100490.81
2023-01-11T18:07:29.870Z,100480.47
2023-01-11T18:12:34.008Z,100483.28
2023-01-11T18:17:42.097Z,100493.81
2023-01-11T18:23:05.388Z,100493.81
2023-01-11T18:28:20.830Z,100490.94
2023-01-11T18:33:28.708Z,100499.53
2023-01-11T18:38:33.971Z,100507.16
2023-01-11T18:43:36.781Z,100505.38
2023-01-11T18:48:38.273Z,100504.63
2023-01-11T18:53:39.759Z,100496.69
2023-01-11T18:58:41.241Z,100490.66
2023-01-11T19:03:44.614Z,100487.25
2023-01-11T19:08:47.703Z,100482.00
2023-01-11T19:13:49.173Z,100477.31
2023-01-11T19:18:54.238Z,100481.41
2023-01-11T19:23:55.675Z,100492.75
2023-01-11T19:28:57.096Z,100483.44
2023-01-11T19:33:59.248Z,100474.72
2023-01-11T19:39:00.724Z,100475.44
2023-01-11T19:44:02.270Z,100461.59
2023-01-11T19:49:06.074Z,100460.53
2023-01-11T19:54:08.369Z,100445.97
2023-01-11T19:59:11.127Z,100439.00
2023-01-11T20:04:15.571Z,100450.28
2023-01-11T20:09:18.519Z,100432.38
2023-01-11T20:14:20.437Z,100432.38
2023-01-11T20:19:21.871Z,100427.31
2023-01-11T20:24:29.447Z,100423.06
2023-01-11T20:29:30.956Z,100405.75
2023-01-11T20:34:32.478Z,100391.81
2023-01-11T20:39:33.939Z,100395.38
2023-01-11T20:44:35.381Z,100391.84
2023-01-11T20:49:36.877Z,100382.25
2023-01-11T20:54:38.469Z,100383.78
2023-01-11T20:59:39.919Z,100361.38
2023-01-11T21:04:41.440Z,100357.84
2023-01-11T21:09:42.865Z,100348.06
2023-01-11T21:14:44.454Z,100331.72
2023-01-11T21:19:46.147Z,100319.50
2023-01-11T21:24:48.380Z,100304.16
2023-01-11T21:29:49.957Z,100296.28
2023-01-11T21:34:51.430Z,100292.66
2023-01-11T21:39:52.905Z,100286.66
2023-01-11T21:44:54.482Z,100284.06
2023-01-11T21:49:56.015Z,100278.81
2023-01-11T21:54:57.457Z,100269.19
2023-01-11T21:59:58.890Z,100261.31
2023-01-11T22:05:00.458Z,100238.13
2023-01-11T22:10:05.640Z,100227.78
2023-01-11T22:15:08.422Z,100237.81
2023-01-11T22:20:10.589Z,100237.75
2023-01-11T22:25:12.090Z,100223.22
2023-01-11T22:30:14.038Z,100220.78
2023-01-11T22:35:15.593Z,100190.63
2023-01-11T22:40:17.239Z,100190.72
2023-01-11T22:45:18.909Z,100185.38
2023-01-11T22:50:20.354Z,100175.06
2023-01-11T22:55:21.836Z,100171.50
2023-01-11T23:00:23.372Z,100158.66
2023-01-11T23:05:25.258Z,100159.44
2023-01-11T23:10:26.748Z,100168.13
2023-01-11T23:15:28.282Z,100148.94
2023-01-11T23:20:29.697Z,100150.75
2023-01-11T23:25:31.180Z,100147.19
2023-01-11T23:30:32.682Z,100144.59
2023-01-11T23:35:34.220Z,100123.44
2023-01-11T23:40:55.726Z,100120.78
2023-01-11T23:46:17.347Z,100103.66
2023-01-11T23:51:18.829Z,100102.53
2023-01-11T23:56:20.312Z,100116.47
